Terminal Aerodrome Forecast
Issued by NWS

Current Version | Previous Version | Text Only | Print | Product List | Glossary On
Versions: 1 2 3 4 5 6 7 8 9 10 11 12 13 14 15 16 17
000
FTUS43 KICT 061136
TAFRSL
TAF
KRSL 061136Z 0612/0712 33010KT P6SM SKC
     FM062200 VRB05KT P6SM BKN250
     FM070100 VRB05KT P6SM BKN120
     FM070700 07007KT P6SM BKN100=

USA.gov is the U.S. government's official web portal to all federal, state and local government web resources and services.